createdAt,value
2018-04-11T00:01:02.301Z,94.90
2018-04-11T00:03:29.904Z,95.00
2018-04-11T00:05:57.897Z,94.90
2018-04-11T00:08:25.523Z,94.90
2018-04-11T00:10:53.087Z,95.00
2018-04-11T00:13:20.632Z,95.10
2018-04-11T00:15:48.219Z,95.10
2018-04-11T00:18:15.815Z,95.10
2018-04-11T00:20:43.391Z,95.00
2018-04-11T00:23:11.006Z,95.00
2018-04-11T00:25:38.611Z,95.00
2018-04-11T00:28:06.210Z,95.20
2018-04-11T00:30:33.795Z,95.20
2018-04-11T00:33:01.383Z,95.20
2018-04-11T00:35:28.928Z,95.20
2018-04-11T00:37:56.567Z,95.20
2018-04-11T00:40:24.160Z,95.10
2018-04-11T00:42:51.714Z,95.10
2018-04-11T00:45:19.315Z,95.20
2018-04-11T00:47:46.937Z,95.20
2018-04-11T00:50:14.512Z,95.20
2018-04-11T00:53:02.787Z,95.30
2018-04-11T00:55:30.383Z,95.30
2018-04-11T00:57:57.971Z,95.30
2018-04-11T01:00:25.611Z,95.30
2018-04-11T01:02:53.188Z,95.30
2018-04-11T01:05:20.790Z,95.30
2018-04-11T01:07:48.315Z,95.30
2018-04-11T01:10:15.891Z,95.20
2018-04-11T01:12:43.514Z,95.20
2018-04-11T01:15:11.128Z,95.40
2018-04-11T01:17:38.696Z,95.30
2018-04-11T01:20:06.293Z,95.40
2018-04-11T01:22:33.838Z,95.20
2018-04-11T01:25:01.408Z,95.20
2018-04-11T01:27:28.955Z,95.10
2018-04-11T01:29:56.559Z,95.30
2018-04-11T01:32:24.474Z,95.30
2018-04-11T01:34:52.067Z,95.30
2018-04-11T01:37:19.686Z,95.30
2018-04-11T01:39:47.277Z,95.30
2018-04-11T01:42:14.863Z,95.40
2018-04-11T01:44:42.464Z,95.70
2018-04-11T01:47:09.999Z,95.80
2018-04-11T01:49:37.615Z,95.80
2018-04-11T01:52:05.188Z,95.80
2018-04-11T01:54:32.774Z,95.70
2018-04-11T01:57:00.334Z,95.50
2018-04-11T01:59:27.880Z,95.40
2018-04-11T02:01:55.466Z,95.40
2018-04-11T02:04:23.050Z,95.30
2018-04-11T02:06:50.686Z,95.30
2018-04-11T02:09:18.222Z,95.40
2018-04-11T02:11:45.794Z,94.90
2018-04-11T02:14:13.354Z,95.00
2018-04-11T02:16:40.931Z,95.00
2018-04-11T02:19:08.503Z,95.00
2018-04-11T02:21:36.062Z,95.00
2018-04-11T02:24:03.707Z,95.00
2018-04-11T02:26:31.283Z,95.00
2018-04-11T02:28:58.843Z,95.00
2018-04-11T02:31:26.480Z,94.90
2018-04-11T02:33:54.075Z,95.00
2018-04-11T02:36:21.695Z,95.00
2018-04-11T02:38:49.267Z,95.00
2018-04-11T02:41:16.857Z,95.10
2018-04-11T02:43:44.868Z,94.90
2018-04-11T02:46:12.452Z,94.90
2018-04-11T02:48:40.013Z,94.90
2018-04-11T02:51:07.570Z,94.90
2018-04-11T02:53:35.098Z,94.90
2018-04-11T02:56:02.690Z,94.90
2018-04-11T02:58:30.238Z,94.90
2018-04-11T03:00:57.891Z,94.90
2018-04-11T03:03:25.425Z,94.90
2018-04-11T03:05:53.049Z,94.80
2018-04-11T03:08:21.059Z,94.70
2018-04-11T03:10:48.681Z,94.70
2018-04-11T03:13:16.310Z,94.60
2018-04-11T03:15:43.883Z,94.50
2018-04-11T03:18:11.486Z,94.40
2018-04-11T03:20:39.113Z,94.40
2018-04-11T03:23:06.736Z,94.30
2018-04-11T03:25:34.290Z,94.20
2018-04-11T03:28:01.841Z,94.20
2018-04-11T03:30:29.395Z,94.20
2018-04-11T03:32:56.970Z,94.40
2018-04-11T03:35:24.516Z,94.40
2018-04-11T03:37:52.074Z,94.40
2018-04-11T03:40:19.606Z,94.30
2018-04-11T03:42:47.183Z,94.40
2018-04-11T03:45:14.723Z,94.40
2018-04-11T03:47:42.343Z,94.30
2018-04-11T03:50:09.939Z,94.30
2018-04-11T03:52:37.485Z,94.30
2018-04-11T03:55:05.104Z,94.10
2018-04-11T03:57:32.731Z,94.10
2018-04-11T04:00:00.309Z,94.10
2018-04-11T04:02:27.863Z,94.10
2018-04-11T04:04:55.449Z,94.00
2018-04-11T04:07:23.018Z,94.00
2018-04-11T04:09:50.660Z,93.90
2018-04-11T04:12:18.230Z,93.90
2018-04-11T04:14:57.571Z,93.90
2018-04-11T04:17:36.813Z,94.00
2018-04-11T04:20:06.701Z,94.00
2018-04-11T04:22:34.326Z,94.00
2018-04-11T04:25:01.877Z,94.00
2018-04-11T04:27:29.477Z,94.00
2018-04-11T04:29:57.098Z,94.00
2018-04-11T04:32:24.688Z,94.00
2018-04-11T04:34:52.265Z,94.00
2018-04-11T04:37:19.864Z,94.00
2018-04-11T04:39:47.448Z,94.10
2018-04-11T04:42:15.038Z,94.10
2018-04-11T04:44:42.795Z,94.10
2018-04-11T04:47:10.338Z,94.10
2018-04-11T04:49:37.899Z,94.10
2018-04-11T04:52:05.462Z,94.20
2018-04-11T04:54:33.014Z,94.10
2018-04-11T04:57:00.591Z,94.00
2018-04-11T04:59:28.196Z,93.90
2018-04-11T05:01:55.722Z,93.80
2018-04-11T05:04:23.329Z,93.90
2018-04-11T05:06:50.959Z,94.00
2018-04-11T05:09:18.582Z,94.10
2018-04-11T05:11:46.190Z,94.30
2018-04-11T05:14:13.822Z,94.30
2018-04-11T05:16:41.747Z,94.50
2018-04-11T05:19:09.334Z,94.50
2018-04-11T05:21:36.908Z,94.60
2018-04-11T05:24:04.485Z,94.70
2018-04-11T05:26:32.453Z,94.70
2018-04-11T05:29:00.031Z,94.80
2018-04-11T05:31:27.599Z,94.80
2018-04-11T05:33:55.155Z,94.90
2018-04-11T05:36:22.715Z,95.00
2018-04-11T05:38:50.278Z,94.90
2018-04-11T05:41:17.831Z,94.80
2018-04-11T05:43:45.389Z,94.80
2018-04-11T05:46:12.972Z,94.80
2018-04-11T05:48:40.519Z,94.80
2018-04-11T05:51:08.063Z,94.80
2018-04-11T05:53:35.611Z,94.70
2018-04-11T05:56:03.183Z,94.70
2018-04-11T05:58:30.729Z,94.70
2018-04-11T06:00:58.367Z,94.60
2018-04-11T06:03:25.922Z,94.70
2018-04-11T06:05:53.544Z,94.70
2018-04-11T06:08:21.110Z,94.70
2018-04-11T06:10:48.794Z,94.70
2018-04-11T06:13:16.388Z,94.60
2018-04-11T06:15:45.462Z,94.50
2018-04-11T06:18:13.010Z,94.40
2018-04-11T06:20:40.641Z,94.20
2018-04-11T06:23:08.217Z,94.10
2018-04-11T06:25:35.799Z,93.90
2018-04-11T06:28:03.416Z,93.70
2018-04-11T06:30:31.003Z,93.40
2018-04-11T06:32:58.576Z,93.10
2018-04-11T06:35:26.158Z,92.40
2018-04-11T06:37:53.724Z,92.10
2018-04-11T06:40:21.355Z,92.10
2018-04-11T06:42:48.950Z,91.70
2018-04-11T06:45:16.581Z,91.40
2018-04-11T06:47:44.133Z,91.60
2018-04-11T06:50:11.683Z,91.50
2018-04-11T06:52:39.369Z,90.90
2018-04-11T06:55:06.915Z,91.00
2018-04-11T06:57:34.490Z,90.70
2018-04-11T07:00:02.076Z,90.90
2018-04-11T07:02:29.669Z,91.00
2018-04-11T07:04:57.229Z,90.10
2018-04-11T07:07:24.835Z,89.90
2018-04-11T07:09:52.418Z,89.60
2018-04-11T07:12:19.994Z,89.50
2018-04-11T07:14:47.585Z,89.20
2018-04-11T07:17:15.156Z,85.70
2018-04-11T07:19:42.701Z,85.30
2018-04-11T07:22:10.271Z,85.30
2018-04-11T07:24:37.819Z,85.80
2018-04-11T07:27:05.403Z,85.60
2018-04-11T07:29:32.979Z,86.20
2018-04-11T07:32:00.575Z,86.80
2018-04-11T07:34:28.168Z,85.10
2018-04-11T07:36:55.805Z,85.70
2018-04-11T07:39:23.449Z,85.60
2018-04-11T07:41:51.059Z,83.40
2018-04-11T07:44:18.582Z,83.00
2018-04-11T07:46:46.156Z,83.20
2018-04-11T07:49:13.778Z,82.30
2018-04-11T07:51:41.355Z,80.60
2018-04-11T07:54:08.910Z,80.10
2018-04-11T07:56:36.515Z,80.10
2018-04-11T07:59:04.088Z,80.60
2018-04-11T08:01:31.619Z,81.00
2018-04-11T08:03:59.234Z,80.00
2018-04-11T08:06:26.827Z,79.40
2018-04-11T08:08:54.406Z,77.30
2018-04-11T08:11:22.009Z,77.80
2018-04-11T08:13:49.596Z,78.80
2018-04-11T08:16:17.201Z,78.40
2018-04-11T08:18:44.781Z,76.30
2018-04-11T08:21:12.357Z,76.40
2018-04-11T08:23:39.468Z,74.60
2018-04-11T08:26:07.038Z,75.20
2018-04-11T08:28:34.624Z,73.00
2018-04-11T08:31:02.179Z,72.50
2018-04-11T08:33:29.800Z,73.60
2018-04-11T08:35:57.390Z,74.80
2018-04-11T08:38:24.980Z,75.50
2018-04-11T08:40:52.531Z,75.80
2018-04-11T08:43:20.151Z,74.20
2018-04-11T08:45:47.725Z,73.40
2018-04-11T08:48:15.301Z,73.70
2018-04-11T08:50:42.908Z,73.00
2018-04-11T08:53:10.497Z,73.60
2018-04-11T08:55:38.091Z,74.80
2018-04-11T08:58:05.658Z,74.60
2018-04-11T09:00:33.213Z,73.40
2018-04-11T09:03:00.819Z,74.30
2018-04-11T09:05:28.431Z,71.90
2018-04-11T09:07:55.996Z,71.60
2018-04-11T09:10:23.603Z,73.90
2018-04-11T09:12:51.552Z,70.70
2018-04-11T09:15:19.126Z,70.70
2018-04-11T09:17:46.687Z,71.40
2018-04-11T09:20:14.254Z,68.40
2018-04-11T09:22:41.802Z,68.90
2018-04-11T09:25:09.382Z,67.00
2018-04-11T09:27:36.958Z,68.00
2018-04-11T09:30:04.584Z,69.90
2018-04-11T09:32:32.132Z,70.50
2018-04-11T09:34:59.718Z,70.60
2018-04-11T09:37:27.323Z,69.10
2018-04-11T09:39:54.958Z,66.80
2018-04-11T09:42:22.502Z,69.40
2018-04-11T09:44:50.311Z,69.10
2018-04-11T09:47:17.851Z,66.80
2018-04-11T09:49:45.488Z,65.40
2018-04-11T09:52:13.038Z,68.10
2018-04-11T09:54:40.619Z,65.70
2018-04-11T09:57:08.162Z,65.90
2018-04-11T09:59:35.744Z,67.90
2018-04-11T10:02:06.187Z,68.80
2018-04-11T10:04:42.495Z,70.50
2018-04-11T10:07:10.058Z,68.00
2018-04-11T10:09:37.655Z,67.10
2018-04-11T10:12:05.213Z,66.90
2018-04-11T10:14:32.767Z,66.40
2018-04-11T10:17:00.394Z,65.10
2018-04-11T10:19:28.020Z,65.10
2018-04-11T10:21:55.953Z,65.50
2018-04-11T10:24:23.532Z,65.50
2018-04-11T10:26:51.150Z,64.40
2018-04-11T10:29:18.694Z,61.50
2018-04-11T10:31:46.296Z,64.60
2018-04-11T10:34:13.890Z,63.50
2018-04-11T10:36:41.521Z,60.20
2018-04-11T10:39:09.071Z,63.40
2018-04-11T10:41:36.638Z,63.10
2018-04-11T10:44:04.185Z,62.90
2018-04-11T10:46:31.754Z,63.00
2018-04-11T10:48:59.408Z,61.50
2018-04-11T10:51:27.035Z,63.10
2018-04-11T10:53:54.690Z,62.20
2018-04-11T10:56:22.284Z,60.20
2018-04-11T10:58:49.816Z,61.70
2018-04-11T11:01:17.418Z,61.40
2018-04-11T11:03:44.994Z,60.30
2018-04-11T11:06:12.584Z,62.20
2018-04-11T11:08:40.139Z,61.10
2018-04-11T11:11:07.711Z,61.00
2018-04-11T11:13:35.334Z,59.20
2018-04-11T11:16:02.916Z,62.30
2018-04-11T11:18:30.463Z,58.20
2018-04-11T11:20:58.049Z,55.80
2018-04-11T11:23:25.617Z,59.40
2018-04-11T11:25:54.768Z,62.20
2018-04-11T11:28:22.345Z,60.80
2018-04-11T11:30:49.977Z,61.90
2018-04-11T11:33:17.545Z,60.90
2018-04-11T11:35:45.133Z,58.70
2018-04-11T11:38:12.661Z,55.30
2018-04-11T11:40:40.252Z,57.70
2018-04-11T11:43:07.823Z,59.90
2018-04-11T11:45:35.399Z,59.80
2018-04-11T11:48:03.011Z,60.10
2018-04-11T11:50:30.534Z,59.10
2018-04-11T11:52:58.101Z,56.40
2018-04-11T11:55:25.653Z,57.40
2018-04-11T11:57:53.622Z,58.80
2018-04-11T12:00:21.199Z,58.80
2018-04-11T12:02:48.813Z,58.90
2018-04-11T12:05:16.364Z,55.50
2018-04-11T12:07:44.067Z,58.60
2018-04-11T12:10:11.641Z,58.50
2018-04-11T12:12:39.192Z,57.40
2018-04-11T12:15:06.744Z,61.00
2018-04-11T12:17:34.332Z,59.70
2018-04-11T12:20:01.899Z,60.50
2018-04-11T12:22:29.468Z,59.10
2018-04-11T12:24:57.019Z,59.60
2018-04-11T12:27:24.812Z,60.00
2018-04-11T12:29:52.367Z,57.70
2018-04-11T12:32:19.997Z,58.60
2018-04-11T12:34:47.567Z,54.80
2018-04-11T12:37:15.155Z,58.60
2018-04-11T12:39:42.722Z,56.80
2018-04-11T12:42:10.319Z,57.00
2018-04-11T12:44:37.871Z,57.40
2018-04-11T12:47:05.470Z,56.30
2018-04-11T12:49:33.028Z,55.40
2018-04-11T12:52:00.600Z,55.30
2018-04-11T12:54:28.168Z,53.70
2018-04-11T12:56:55.729Z,52.40
2018-04-11T12:59:23.691Z,54.90
2018-04-11T13:01:51.241Z,54.90
2018-04-11T13:04:18.870Z,54.60
2018-04-11T13:06:46.486Z,53.10
2018-04-11T13:09:14.059Z,56.60
2018-04-11T13:11:41.615Z,56.60
2018-04-11T13:14:09.199Z,53.90
2018-04-11T13:16:36.771Z,55.00
2018-04-11T13:19:04.362Z,54.10
2018-04-11T13:21:31.938Z,54.40
2018-04-11T13:23:59.582Z,53.40
2018-04-11T13:26:27.786Z,51.40
2018-04-11T13:28:55.400Z,53.60
2018-04-11T13:31:23.019Z,51.80
2018-04-11T13:33:50.840Z,50.30
2018-04-11T13:36:18.487Z,48.90
2018-04-11T13:38:46.212Z,49.10
2018-04-11T13:41:13.783Z,47.80
2018-04-11T13:43:41.438Z,48.00
2018-04-11T13:46:09.175Z,47.80
2018-04-11T13:48:36.745Z,46.80
2018-04-11T13:51:04.278Z,47.80
2018-04-11T13:53:31.883Z,47.80
2018-04-11T13:55:59.420Z,47.30
2018-04-11T13:58:26.992Z,47.90
2018-04-11T14:00:54.555Z,46.50
2018-04-11T14:03:22.809Z,46.20
2018-04-11T14:05:50.363Z,45.20
2018-04-11T14:08:19.375Z,43.40
2018-04-11T14:10:47.128Z,44.70
2018-04-11T14:13:14.720Z,44.70
2018-04-11T14:15:42.500Z,44.60
2018-04-11T14:18:10.112Z,44.70
2018-04-11T14:20:37.726Z,45.30
2018-04-11T14:23:05.308Z,44.60
2018-04-11T14:25:32.887Z,42.90
2018-04-11T14:28:00.454Z,42.80
2018-04-11T14:30:28.026Z,43.00
2018-04-11T14:32:55.589Z,42.60
2018-04-11T14:35:24.168Z,43.30
2018-04-11T14:37:51.852Z,41.40
2018-04-11T14:40:19.467Z,40.00
2018-04-11T14:42:47.004Z,40.60
2018-04-11T14:45:14.578Z,40.00
2018-04-11T14:47:42.143Z,42.50
2018-04-11T14:50:09.719Z,42.90
2018-04-11T14:52:37.278Z,42.80
2018-04-11T14:55:04.903Z,41.00
2018-04-11T14:57:32.475Z,40.20
2018-04-11T15:00:00.061Z,40.90
2018-04-11T15:02:27.591Z,40.10
2018-04-11T15:04:55.210Z,40.60
2018-04-11T15:07:23.567Z,41.30
2018-04-11T15:09:51.408Z,41.00
2018-04-11T15:12:19.226Z,40.80
2018-04-11T15:14:46.835Z,40.70
2018-04-11T15:17:14.412Z,42.60
2018-04-11T15:19:42.006Z,42.10
2018-04-11T15:22:09.895Z,42.20
2018-04-11T15:24:38.171Z,44.60
2018-04-11T15:27:05.847Z,44.60
2018-04-11T15:29:33.438Z,44.80
2018-04-11T15:32:01.567Z,45.80
2018-04-11T15:34:29.236Z,45.80
2018-04-11T15:36:57.127Z,46.10
2018-04-11T15:39:24.712Z,47.30
2018-04-11T15:41:52.414Z,49.70
2018-04-11T15:44:19.967Z,50.90
2018-04-11T15:46:47.603Z,52.60
2018-04-11T15:49:15.236Z,53.00
2018-04-11T15:51:42.875Z,53.30
2018-04-11T15:54:11.134Z,53.30
2018-04-11T15:56:38.762Z,53.80
2018-04-11T15:59:06.343Z,53.60
2018-04-11T16:01:33.911Z,53.20
2018-04-11T16:04:01.442Z,53.20
2018-04-11T16:06:29.050Z,52.50
2018-04-11T16:08:56.598Z,50.70
2018-04-11T16:11:24.196Z,50.30
2018-04-11T16:13:51.770Z,50.00
2018-04-11T16:16:19.428Z,51.20
2018-04-11T16:18:47.014Z,52.60
2018-04-11T16:21:14.604Z,54.20
2018-04-11T16:23:42.206Z,53.40
2018-04-11T16:26:09.841Z,53.20
2018-04-11T16:28:37.852Z,52.70
2018-04-11T16:31:06.358Z,51.40
2018-04-11T16:33:33.952Z,51.80
2018-04-11T16:36:02.385Z,52.40
2018-04-11T16:38:30.273Z,53.00
2018-04-11T16:40:58.000Z,54.10
2018-04-11T16:43:26.559Z,54.60
2018-04-11T16:45:54.139Z,55.50
2018-04-11T16:48:21.995Z,56.90
2018-04-11T16:50:49.643Z,57.40
2018-04-11T16:53:17.783Z,58.50
2018-04-11T16:55:45.498Z,59.30
2018-04-11T16:58:13.459Z,60.30
2018-04-11T17:00:41.046Z,60.80
2018-04-11T17:03:09.347Z,61.30
2018-04-11T17:05:36.922Z,61.30
2018-04-11T17:08:04.477Z,62.40
2018-04-11T17:10:32.115Z,62.50
2018-04-11T17:12:59.724Z,62.90
2018-04-11T17:15:27.266Z,63.80
2018-04-11T17:17:54.894Z,64.30
2018-04-11T17:20:34.846Z,64.20
2018-04-11T17:23:15.174Z,65.10
2018-04-11T17:25:55.414Z,65.40
2018-04-11T17:28:34.686Z,65.30
2018-04-11T17:31:14.008Z,64.90
2018-04-11T17:33:41.577Z,65.40
2018-04-11T17:36:09.137Z,65.70
2018-04-11T17:38:37.089Z,66.40
2018-04-11T17:41:04.677Z,66.40
2018-04-11T17:43:33.075Z,66.90
2018-04-11T17:46:00.711Z,66.90
2018-04-11T17:48:29.068Z,68.40
2018-04-11T17:50:56.627Z,68.30
2018-04-11T17:53:24.194Z,68.50
2018-04-11T17:55:51.725Z,68.80
2018-04-11T17:58:19.332Z,69.10
2018-04-11T18:00:46.887Z,69.50
2018-04-11T18:03:14.468Z,69.70
2018-04-11T18:05:42.014Z,69.90
2018-04-11T18:08:09.586Z,69.90
2018-04-11T18:10:37.172Z,70.20
2018-04-11T18:13:04.756Z,70.30
2018-04-11T18:15:32.395Z,70.50
2018-04-11T18:18:00.451Z,70.80
2018-04-11T18:20:28.161Z,70.90
2018-04-11T18:22:56.161Z,71.40
2018-04-11T18:25:23.740Z,71.40
2018-04-11T18:27:51.371Z,71.40
2018-04-11T18:30:18.968Z,71.90
2018-04-11T18:32:46.519Z,72.00
2018-04-11T18:35:14.102Z,72.30
2018-04-11T18:37:41.698Z,72.60
2018-04-11T18:40:09.369Z,72.70
2018-04-11T18:42:36.924Z,72.70
2018-04-11T18:45:04.499Z,72.90
2018-04-11T18:47:32.043Z,73.00
2018-04-11T18:49:59.623Z,73.10
2018-04-11T18:52:27.159Z,73.20
2018-04-11T18:54:54.735Z,73.80
2018-04-11T18:57:22.267Z,73.80
2018-04-11T18:59:49.882Z,74.10
2018-04-11T19:02:17.437Z,74.20
2018-04-11T19:04:45.211Z,74.30
2018-04-11T19:07:12.772Z,74.90
2018-04-11T19:09:40.359Z,75.10
2018-04-11T19:12:11.014Z,75.30
2018-04-11T19:14:38.562Z,75.50
2018-04-11T19:17:06.106Z,75.90
2018-04-11T19:19:33.670Z,75.90
2018-04-11T19:22:01.247Z,76.40
2018-04-11T19:24:28.855Z,76.50
2018-04-11T19:26:56.434Z,76.70
2018-04-11T19:29:24.415Z,76.90
2018-04-11T19:31:52.002Z,76.90
2018-04-11T19:34:19.588Z,77.00
2018-04-11T19:36:47.236Z,77.10
2018-04-11T19:39:14.814Z,77.30
2018-04-11T19:41:42.422Z,77.40
2018-04-11T19:44:09.982Z,77.40
2018-04-11T19:46:37.551Z,77.70
2018-04-11T19:49:05.115Z,77.70
2018-04-11T19:51:32.739Z,77.60
2018-04-11T19:54:00.374Z,77.60
2018-04-11T19:56:28.075Z,77.70
2018-04-11T19:58:55.611Z,77.70
2018-04-11T20:01:23.266Z,77.80
2018-04-11T20:03:50.902Z,77.90
2018-04-11T20:06:18.489Z,77.90
2018-04-11T20:08:46.077Z,78.10
2018-04-11T20:11:13.721Z,78.20
2018-04-11T20:13:41.232Z,78.50
2018-04-11T20:16:08.788Z,78.70
2018-04-11T20:18:36.345Z,79.20
2018-04-11T20:21:04.035Z,79.40
2018-04-11T20:23:32.027Z,79.80
2018-04-11T20:25:59.611Z,79.80
2018-04-11T20:28:27.207Z,80.00
2018-04-11T20:30:54.801Z,80.30
2018-04-11T20:33:22.363Z,80.30
2018-04-11T20:35:50.025Z,80.60
2018-04-11T20:38:17.603Z,80.80
2018-04-11T20:40:45.211Z,81.10
2018-04-11T20:43:12.840Z,81.00
2018-04-11T20:45:40.417Z,81.60
2018-04-11T20:48:08.031Z,82.00
2018-04-11T20:50:35.583Z,82.00
2018-04-11T20:53:03.132Z,82.20
2018-04-11T20:55:30.860Z,82.30
2018-04-11T20:57:58.439Z,82.50
2018-04-11T21:00:26.010Z,82.80
2018-04-11T21:02:53.631Z,83.10
2018-04-11T21:05:21.222Z,83.40
2018-04-11T21:07:48.818Z,83.40
2018-04-11T21:10:16.390Z,83.50
2018-04-11T21:12:44.194Z,83.80
2018-04-11T21:15:11.818Z,83.90
2018-04-11T21:17:39.395Z,84.00
2018-04-11T21:20:06.926Z,84.30
2018-04-11T21:22:34.530Z,84.50
2018-04-11T21:25:02.192Z,84.80
2018-04-11T21:27:29.832Z,85.00
2018-04-11T21:29:57.379Z,85.20
2018-04-11T21:32:25.022Z,85.00
2018-04-11T21:34:52.570Z,85.10
2018-04-11T21:37:20.136Z,85.00
2018-04-11T21:39:47.713Z,85.30
2018-04-11T21:42:15.260Z,85.10
2018-04-11T21:44:42.861Z,85.00
2018-04-11T21:47:10.805Z,85.00
2018-04-11T21:49:38.392Z,85.00
2018-04-11T21:52:06.361Z,85.10
2018-04-11T21:54:33.936Z,85.10
2018-04-11T21:57:01.517Z,85.30
2018-04-11T21:59:29.118Z,85.50
2018-04-11T22:01:56.668Z,85.60
2018-04-11T22:04:24.300Z,85.80
2018-04-11T22:06:51.863Z,86.00
2018-04-11T22:09:19.499Z,85.60
2018-04-11T22:11:47.211Z,85.80
2018-04-11T22:14:15.420Z,85.70
2018-04-11T22:16:42.959Z,85.70
2018-04-11T22:19:10.563Z,85.90
2018-04-11T22:21:38.106Z,85.90
2018-04-11T22:24:05.698Z,85.90
2018-04-11T22:26:33.346Z,85.80
2018-04-11T22:29:00.927Z,85.90
2018-04-11T22:31:28.523Z,85.90
2018-04-11T22:33:56.129Z,85.80
2018-04-11T22:36:23.727Z,85.80
2018-04-11T22:38:51.289Z,86.00
2018-04-11T22:41:18.851Z,85.90
2018-04-11T22:43:46.450Z,85.80
2018-04-11T22:46:14.052Z,85.90
2018-04-11T22:48:41.638Z,86.40
2018-04-11T22:51:09.197Z,86.20
2018-04-11T22:53:36.770Z,86.30
2018-04-11T22:56:04.351Z,86.30
2018-04-11T22:58:31.897Z,86.00
2018-04-11T23:00:59.472Z,85.90
2018-04-11T23:03:27.072Z,85.80
2018-04-11T23:05:54.676Z,86.20
2018-04-11T23:08:22.231Z,86.20
2018-04-11T23:10:49.811Z,86.30
2018-04-11T23:13:17.361Z,86.40
2018-04-11T23:15:44.928Z,86.60
2018-04-11T23:18:12.497Z,86.60
2018-04-11T23:20:40.083Z,86.60
2018-04-11T23:23:07.650Z,87.00
2018-04-11T23:25:35.241Z,86.80
2018-04-11T23:28:02.812Z,86.70
2018-04-11T23:30:30.439Z,86.80
2018-04-11T23:32:58.016Z,86.70
2018-04-11T23:35:25.583Z,86.60
2018-04-11T23:37:53.210Z,86.60
2018-04-11T23:40:20.800Z,87.20
2018-04-11T23:42:48.367Z,87.40
2018-04-11T23:45:15.997Z,87.30
2018-04-11T23:47:43.555Z,87.10
2018-04-11T23:50:11.144Z,87.40
2018-04-11T23:52:38.697Z,87.40
2018-04-11T23:55:06.535Z,87.60
2018-04-11T23:57:34.086Z,87.60
